createdAt,value
2019-01-11T00:02:02.206Z,9.57
2019-01-11T00:04:32.391Z,9.10
2019-01-11T00:07:02.593Z,9.10
2019-01-11T00:09:32.863Z,10.03
2019-01-11T00:12:03.107Z,10.40
2019-01-11T00:14:33.704Z,9.50
2019-01-11T00:17:04.072Z,8.93
2019-01-11T00:19:34.335Z,9.37
2019-01-11T00:22:06.625Z,8.73
2019-01-11T00:24:36.981Z,10.40
2019-01-11T00:27:07.189Z,8.70
2019-01-11T00:29:37.462Z,10.40
2019-01-11T00:32:07.755Z,9.63
2019-01-11T00:34:38.022Z,10.13
2019-01-11T00:37:08.289Z,9.50
2019-01-11T00:39:38.552Z,9.90
2019-01-11T00:42:08.853Z,9.60
2019-01-11T00:44:39.081Z,9.53
2019-01-11T00:47:10.350Z,8.67
2019-01-11T00:49:40.566Z,9.53
2019-01-11T00:52:10.840Z,9.33
2019-01-11T00:54:41.109Z,9.83
2019-01-11T00:57:11.401Z,10.35
2019-01-11T00:59:41.657Z,10.13
2019-01-11T01:02:11.948Z,9.57
2019-01-11T01:04:42.422Z,9.67
2019-01-11T01:07:13.034Z,9.93
2019-01-11T01:09:43.263Z,10.45
2019-01-11T01:12:13.815Z,9.77
2019-01-11T01:14:44.095Z,10.43
2019-01-11T01:17:15.233Z,10.23
2019-01-11T01:19:46.657Z,10.13
2019-01-11T01:22:17.040Z,11.07
2019-01-11T01:24:47.382Z,11.13
2019-01-11T01:27:17.659Z,10.37
2019-01-11T01:29:47.966Z,9.80
2019-01-11T01:32:18.287Z,10.00
2019-01-11T01:34:48.526Z,10.40
2019-01-11T01:37:18.791Z,11.17
2019-01-11T01:39:49.149Z,9.23
2019-01-11T01:42:19.434Z,9.87
2019-01-11T01:44:49.793Z,9.47
2019-01-11T01:47:19.994Z,9.80
2019-01-11T01:49:51.605Z,9.95
2019-01-11T01:52:21.864Z,9.90
2019-01-11T01:54:52.168Z,10.30
2019-01-11T01:57:22.513Z,10.03
2019-01-11T01:59:52.788Z,9.90
2019-01-11T02:02:23.065Z,10.27
2019-01-11T02:04:53.339Z,9.97
2019-01-11T02:07:23.523Z,9.77
2019-01-11T02:09:53.784Z,10.27
2019-01-11T02:12:24.056Z,9.53
2019-01-11T02:14:54.325Z,8.90
2019-01-11T02:17:24.967Z,8.23
2019-01-11T02:19:55.261Z,8.43
2019-01-11T02:22:25.482Z,7.50
2019-01-11T02:24:56.565Z,8.60
2019-01-11T02:27:26.745Z,8.07
2019-01-11T02:29:56.997Z,7.10
2019-01-11T02:32:28.182Z,6.90
2019-01-11T02:34:58.465Z,7.35
2019-01-11T02:37:28.641Z,7.30
2019-01-11T02:39:58.901Z,5.83
2019-01-11T02:42:29.176Z,6.43
2019-01-11T02:44:59.436Z,6.40
2019-01-11T02:47:29.730Z,6.30
2019-01-11T02:50:00.014Z,6.03
2019-01-11T02:52:30.303Z,6.73
2019-01-11T02:55:00.506Z,6.47
2019-01-11T02:57:30.718Z,7.37
2019-01-11T03:00:00.988Z,6.50
2019-01-11T03:02:31.362Z,6.57
2019-01-11T03:05:01.701Z,6.03
2019-01-11T03:07:31.899Z,6.30
2019-01-11T03:10:02.162Z,6.37
2019-01-11T03:12:32.427Z,7.23
2019-01-11T03:15:02.741Z,8.50
2019-01-11T03:17:33.135Z,9.27
2019-01-11T03:20:03.394Z,9.03
2019-01-11T03:22:33.585Z,9.53
2019-01-11T03:25:04.761Z,8.57
2019-01-11T03:27:35.032Z,8.40
2019-01-11T03:30:07.712Z,7.60
2019-01-11T03:32:37.901Z,7.10
2019-01-11T03:35:18.710Z,7.50
2019-01-11T03:37:50.921Z,7.57
2019-01-11T03:40:26.275Z,8.07
2019-01-11T03:42:57.642Z,8.53
2019-01-11T03:45:30.082Z,8.00
2019-01-11T03:48:00.343Z,8.80
2019-01-11T03:50:31.662Z,10.83
2019-01-11T03:53:01.987Z,9.93
2019-01-11T03:55:32.204Z,10.43
2019-01-11T03:58:02.470Z,10.93
2019-01-11T04:00:32.775Z,9.37
2019-01-11T04:03:03.013Z,10.67
2019-01-11T04:05:33.224Z,10.17
2019-01-11T04:08:03.567Z,10.10
2019-01-11T04:10:33.848Z,9.47
2019-01-11T04:13:04.127Z,10.17
2019-01-11T04:15:34.393Z,9.80
2019-01-11T04:18:31.044Z,9.10
2019-01-11T04:21:01.657Z,9.63
2019-01-11T04:23:31.939Z,10.23
2019-01-11T04:26:02.353Z,10.53
2019-01-11T04:28:32.566Z,9.93
2019-01-11T04:31:02.770Z,9.37
2019-01-11T04:33:33.056Z,9.57
2019-01-11T04:36:03.687Z,9.20
2019-01-11T04:38:33.889Z,10.07
2019-01-11T04:41:04.162Z,10.73
2019-01-11T04:43:34.440Z,10.00
2019-01-11T04:46:04.825Z,12.57
2019-01-11T04:48:35.199Z,10.60
2019-01-11T04:51:05.658Z,9.75
2019-01-11T04:53:35.970Z,9.77
2019-01-11T04:56:06.216Z,10.27
2019-01-11T04:58:36.527Z,10.00
2019-01-11T05:01:06.762Z,10.00
2019-01-11T05:03:37.023Z,11.07
2019-01-11T05:06:07.302Z,9.77
2019-01-11T05:08:37.577Z,10.00
2019-01-11T05:11:08.086Z,9.67
2019-01-11T05:13:43.150Z,10.63
2019-01-11T05:16:13.491Z,9.97
2019-01-11T05:18:43.677Z,10.67
2019-01-11T05:21:13.949Z,9.90
2019-01-11T05:23:44.162Z,10.27
2019-01-11T05:26:14.417Z,9.83
2019-01-11T05:28:44.708Z,10.13
2019-01-11T05:31:14.964Z,10.23
2019-01-11T05:33:45.233Z,9.97
2019-01-11T05:36:15.531Z,10.10
2019-01-11T05:38:46.150Z,10.80
2019-01-11T05:41:16.536Z,9.33
2019-01-11T05:43:46.998Z,10.80
2019-01-11T05:46:17.597Z,10.57
2019-01-11T05:48:47.799Z,10.73
2019-01-11T05:51:18.071Z,10.73
2019-01-11T05:53:48.327Z,10.60
2019-01-11T05:56:20.118Z,10.87
2019-01-11T05:59:00.868Z,10.33
2019-01-11T06:01:31.459Z,11.13
2019-01-11T06:04:03.368Z,12.47
2019-01-11T06:06:51.524Z,10.33
2019-01-11T06:09:21.720Z,10.40
2019-01-11T06:11:52.253Z,10.53
2019-01-11T06:14:22.463Z,10.50
2019-01-11T06:16:52.747Z,10.43
2019-01-11T06:19:23.061Z,10.67
2019-01-11T06:21:53.720Z,11.03
2019-01-11T06:24:23.966Z,10.40
2019-01-11T06:26:54.506Z,11.07
2019-01-11T06:29:24.929Z,10.67
2019-01-11T06:31:55.290Z,10.23
2019-01-11T06:34:25.711Z,10.53
2019-01-11T06:36:56.016Z,10.77
2019-01-11T06:39:26.230Z,9.73
2019-01-11T06:42:02.419Z,10.63
2019-01-11T06:44:38.790Z,10.33
2019-01-11T06:47:05.362Z,11.63
2019-01-11T06:49:35.990Z,10.53
2019-01-11T06:52:06.320Z,11.00
2019-01-11T06:54:36.950Z,11.27
2019-01-11T06:57:07.263Z,10.30
2019-01-11T06:59:37.531Z,10.63
2019-01-11T07:02:08.252Z,10.30
2019-01-11T07:04:38.482Z,10.53
2019-01-11T07:07:08.739Z,10.10
2019-01-11T07:09:38.925Z,10.57
2019-01-11T07:12:09.230Z,9.73
2019-01-11T07:14:39.582Z,10.53
2019-01-11T07:17:09.868Z,10.60
2019-01-11T07:19:40.123Z,10.77
2019-01-11T07:22:10.428Z,10.53
2019-01-11T07:24:40.675Z,10.53
2019-01-11T07:27:10.953Z,10.63
2019-01-11T07:29:41.214Z,10.90
2019-01-11T07:32:11.631Z,10.73
2019-01-11T07:34:41.911Z,10.60
2019-01-11T07:37:12.236Z,10.73
2019-01-11T07:39:42.794Z,10.17
2019-01-11T07:42:13.430Z,10.07
2019-01-11T07:44:44.059Z,10.73
2019-01-11T07:47:14.541Z,10.63
2019-01-11T07:49:45.615Z,10.30
2019-01-11T07:52:15.995Z,9.53
2019-01-11T07:54:46.218Z,9.87
2019-01-11T07:57:16.435Z,10.33
2019-01-11T07:59:46.724Z,10.13
2019-01-11T08:02:17.460Z,9.97
2019-01-11T08:04:47.781Z,11.23
2019-01-11T08:07:19.149Z,10.67
2019-01-11T08:09:50.809Z,9.87
2019-01-11T08:12:21.141Z,9.20
2019-01-11T08:14:51.339Z,9.30
2019-01-11T08:17:21.592Z,11.47
2019-01-11T08:19:51.856Z,9.90
2019-01-11T08:22:41.077Z,10.73
2019-01-11T08:25:12.539Z,10.47
2019-01-11T08:27:43.447Z,9.47
2019-01-11T08:30:16.710Z,9.78
2019-01-11T08:32:47.079Z,10.43
2019-01-11T08:35:17.454Z,11.07
2019-01-11T08:37:47.831Z,10.87
2019-01-11T08:40:18.470Z,9.83
2019-01-11T08:42:48.869Z,10.03
2019-01-11T08:45:19.184Z,10.87
2019-01-11T08:47:49.734Z,9.80
2019-01-11T08:50:20.268Z,9.90
2019-01-11T08:52:52.009Z,9.83
2019-01-11T08:55:22.285Z,10.83
2019-01-11T08:57:52.522Z,10.00
2019-01-11T09:00:22.836Z,11.20
2019-01-11T09:02:53.055Z,10.90
2019-01-11T09:05:23.397Z,10.80
2019-01-11T09:07:53.614Z,11.50
2019-01-11T09:10:24.797Z,10.47
2019-01-11T09:12:55.562Z,15.53
2019-01-11T09:15:25.761Z,11.47
2019-01-11T09:18:16.354Z,13.47
2019-01-11T09:20:46.623Z,11.60
2019-01-11T09:23:16.921Z,10.33
2019-01-11T09:25:47.193Z,9.63
2019-01-11T09:28:17.466Z,11.43
2019-01-11T09:30:48.300Z,10.03
2019-01-11T09:33:20.650Z,10.57
2019-01-11T09:35:50.598Z,10.83
2019-01-11T09:38:20.856Z,10.00
2019-01-11T09:40:51.129Z,10.23
2019-01-11T09:43:21.310Z,10.43
2019-01-11T09:45:51.685Z,10.10
2019-01-11T09:48:21.964Z,10.77
2019-01-11T09:50:52.283Z,10.80
2019-01-11T09:53:22.503Z,10.10
2019-01-11T09:55:52.911Z,9.37
2019-01-11T09:58:23.167Z,10.63
2019-01-11T10:00:59.001Z,9.87
2019-01-11T10:03:25.427Z,9.97
2019-01-11T10:05:55.720Z,9.67
2019-01-11T10:08:25.988Z,11.07
2019-01-11T10:10:56.655Z,9.90
2019-01-11T10:13:26.938Z,9.90
2019-01-11T10:15:57.174Z,10.37
2019-01-11T10:18:27.385Z,10.97
2019-01-11T10:20:57.598Z,11.57
2019-01-11T10:23:28.946Z,11.40
2019-01-11T10:25:59.266Z,10.77
2019-01-11T10:28:29.513Z,10.70
2019-01-11T10:31:00.793Z,10.57
2019-01-11T10:33:36.144Z,11.20
2019-01-11T10:36:03.136Z,10.50
2019-01-11T10:38:33.361Z,10.20
2019-01-11T10:41:03.578Z,11.20
2019-01-11T10:43:33.805Z,10.73
2019-01-11T10:46:10.468Z,11.47
2019-01-11T10:48:40.684Z,11.88
2019-01-11T10:51:10.957Z,10.67
2019-01-11T10:53:41.240Z,11.43
2019-01-11T10:56:11.578Z,11.90
2019-01-11T10:58:41.893Z,11.93
2019-01-11T11:01:12.367Z,11.90
2019-01-11T11:03:42.648Z,13.13
2019-01-11T11:06:12.860Z,13.30
2019-01-11T11:08:43.110Z,13.33
2019-01-11T11:11:16.677Z,12.57
2019-01-11T11:13:45.398Z,13.40
2019-01-11T11:16:15.710Z,12.40
2019-01-11T11:18:45.947Z,11.77
2019-01-11T11:21:16.246Z,12.93
2019-01-11T11:23:46.483Z,12.90
2019-01-11T11:26:16.789Z,13.63
2019-01-11T11:28:47.187Z,13.47
2019-01-11T11:31:17.437Z,12.90
2019-01-11T11:33:47.674Z,12.80
2019-01-11T11:36:18.826Z,14.10
2019-01-11T11:38:49.140Z,13.77
2019-01-11T11:41:19.399Z,13.87
2019-01-11T11:43:49.668Z,13.20
2019-01-11T11:46:19.940Z,13.33
2019-01-11T11:48:50.731Z,13.57
2019-01-11T11:51:21.041Z,13.80
2019-01-11T11:53:52.415Z,14.07
2019-01-11T11:56:22.604Z,13.07
2019-01-11T11:58:52.878Z,13.73
2019-01-11T12:01:23.182Z,13.17
2019-01-11T12:03:53.453Z,13.57
2019-01-11T12:06:23.710Z,13.80
2019-01-11T12:08:54.182Z,13.63
2019-01-11T12:11:24.489Z,14.07
2019-01-11T12:13:55.395Z,13.03
2019-01-11T12:16:25.611Z,13.10
2019-01-11T12:18:55.888Z,13.30
2019-01-11T12:21:26.160Z,13.53
2019-01-11T12:23:56.449Z,12.80
2019-01-11T12:26:26.920Z,13.30
2019-01-11T12:28:57.330Z,13.83
2019-01-11T12:31:27.560Z,13.80
2019-01-11T12:33:58.762Z,12.83
2019-01-11T12:36:29.032Z,12.97
2019-01-11T12:38:59.315Z,13.27
2019-01-11T12:41:29.586Z,13.57
2019-01-11T12:43:59.867Z,13.33
2019-01-11T12:46:30.151Z,12.40
2019-01-11T12:49:01.026Z,12.75
2019-01-11T12:51:31.327Z,13.87
2019-01-11T12:54:01.584Z,13.77
2019-01-11T12:56:31.855Z,13.00
2019-01-11T12:59:02.147Z,12.53
2019-01-11T13:01:32.762Z,12.77
2019-01-11T13:04:03.085Z,12.67
2019-01-11T13:06:33.337Z,13.43
2019-01-11T13:09:04.696Z,11.60
2019-01-11T13:11:34.921Z,11.53
2019-01-11T13:14:05.954Z,11.23
2019-01-11T13:16:36.177Z,11.63
2019-01-11T13:19:06.536Z,13.03
2019-01-11T13:21:36.836Z,12.10
2019-01-11T13:24:07.722Z,11.53
2019-01-11T13:26:38.006Z,11.50
2019-01-11T13:29:08.374Z,11.47
2019-01-11T13:31:38.642Z,11.90
2019-01-11T13:34:08.944Z,12.67
2019-01-11T13:36:39.562Z,12.27
2019-01-11T13:39:12.443Z,11.73
2019-01-11T13:41:42.710Z,11.15
2019-01-11T13:44:13.922Z,12.07
2019-01-11T13:46:44.193Z,11.97
2019-01-11T13:49:14.409Z,12.63
2019-01-11T13:51:44.699Z,12.68
2019-01-11T13:54:15.762Z,11.20
2019-01-11T13:56:46.356Z,13.47
2019-01-11T13:59:16.675Z,13.33
2019-01-11T14:01:48.056Z,14.40
2019-01-11T14:04:18.422Z,13.23
2019-01-11T14:06:48.728Z,14.60
2019-01-11T14:09:19.029Z,14.27
2019-01-11T14:11:49.297Z,13.67
2019-01-11T14:14:20.616Z,12.00
2019-01-11T14:16:50.957Z,13.53
2019-01-11T14:19:21.268Z,12.37
2019-01-11T14:21:51.538Z,13.20
2019-01-11T14:24:21.803Z,12.20
2019-01-11T14:26:52.426Z,12.43
2019-01-11T14:29:23.038Z,12.57
2019-01-11T14:31:53.375Z,11.53
2019-01-11T14:34:23.656Z,12.43
2019-01-11T14:36:55.456Z,12.80
2019-01-11T14:39:26.156Z,12.43
2019-01-11T14:41:57.216Z,12.57
2019-01-11T14:44:27.555Z,13.20
2019-01-11T14:46:58.083Z,12.30
2019-01-11T14:49:28.352Z,12.53
2019-01-11T14:51:58.962Z,12.37
2019-01-11T14:54:29.185Z,12.50
2019-01-11T14:56:59.484Z,11.50
2019-01-11T14:59:30.109Z,11.97
2019-01-11T15:02:00.466Z,12.53
2019-01-11T15:04:30.968Z,13.00
2019-01-11T15:07:01.382Z,13.30
2019-01-11T15:09:31.664Z,13.40
2019-01-11T15:12:01.926Z,12.90
2019-01-11T15:14:32.195Z,13.20
2019-01-11T15:17:02.793Z,13.27
2019-01-11T15:19:33.120Z,13.23
2019-01-11T15:22:03.599Z,13.53
2019-01-11T15:24:33.873Z,12.93
2019-01-11T15:27:04.180Z,12.93
2019-01-11T15:29:34.784Z,13.73
2019-01-11T15:32:05.346Z,12.53
2019-01-11T15:34:35.614Z,13.30
2019-01-11T15:37:05.974Z,13.53
2019-01-11T15:39:36.380Z,13.23
2019-01-11T15:42:06.776Z,13.33
2019-01-11T15:44:37.825Z,15.27
2019-01-11T15:47:10.187Z,13.57
2019-01-11T15:49:40.540Z,13.53
2019-01-11T15:52:10.931Z,17.93
2019-01-11T15:54:41.265Z,14.13
2019-01-11T15:57:11.580Z,14.17
2019-01-11T16:00:00.995Z,14.30
2019-01-11T16:02:33.519Z,13.80
2019-01-11T16:05:03.851Z,13.10
2019-01-11T16:07:35.229Z,12.73
2019-01-11T16:10:13.812Z,13.20
2019-01-11T16:13:31.322Z,12.90
2019-01-11T16:16:29.442Z,13.93
2019-01-11T16:18:59.817Z,13.07
2019-01-11T16:21:30.073Z,12.77
2019-01-11T16:24:00.330Z,14.20
2019-01-11T16:26:30.689Z,13.37
2019-01-11T16:29:00.928Z,13.67
2019-01-11T16:31:31.173Z,12.80
2019-01-11T16:34:01.529Z,13.13
2019-01-11T16:36:31.847Z,12.37
2019-01-11T16:39:03.153Z,14.67
2019-01-11T16:41:35.110Z,21.20
2019-01-11T16:44:05.530Z,14.73
2019-01-11T16:46:35.893Z,14.67
2019-01-11T16:49:06.259Z,13.30
2019-01-11T16:51:36.567Z,15.00
2019-01-11T16:54:06.882Z,14.63
2019-01-11T16:56:37.501Z,14.43
2019-01-11T16:59:08.023Z,13.00
2019-01-11T17:01:38.365Z,13.70
2019-01-11T17:04:08.802Z,13.97
2019-01-11T17:06:39.125Z,13.80
2019-01-11T17:09:10.042Z,13.57
2019-01-11T17:11:40.623Z,14.93
2019-01-11T17:14:10.879Z,14.60
2019-01-11T17:16:41.525Z,15.80
2019-01-11T17:19:12.115Z,15.83
2019-01-11T17:21:42.317Z,14.87
2019-01-11T17:24:12.638Z,14.17
2019-01-11T17:26:43.023Z,13.30
2019-01-11T17:29:13.366Z,14.60
2019-01-11T17:31:43.627Z,14.77
2019-01-11T17:34:13.891Z,13.87
2019-01-11T17:36:44.171Z,15.10
2019-01-11T17:39:15.541Z,13.23
2019-01-11T17:41:46.653Z,12.57
2019-01-11T17:44:17.120Z,12.53
2019-01-11T17:46:47.403Z,12.80
2019-01-11T17:49:21.596Z,14.73
2019-01-11T17:51:51.874Z,15.50
2019-01-11T17:54:22.329Z,15.30
2019-01-11T17:56:52.728Z,16.23
2019-01-11T17:59:23.200Z,16.33
2019-01-11T18:01:53.507Z,15.57
2019-01-11T18:04:25.318Z,18.80
2019-01-11T18:06:55.910Z,17.03
2019-01-11T18:09:26.598Z,13.90
2019-01-11T18:11:57.162Z,14.10
2019-01-11T18:14:28.213Z,13.53
2019-01-11T18:16:58.616Z,13.10
2019-01-11T18:19:28.928Z,12.43
2019-01-11T18:21:59.156Z,10.83
2019-01-11T18:24:29.488Z,11.73
2019-01-11T18:26:59.736Z,11.50
2019-01-11T18:29:30.034Z,11.20
2019-01-11T18:32:00.262Z,11.15
2019-01-11T18:34:30.585Z,12.83
2019-01-11T18:37:01.918Z,10.63
2019-01-11T18:39:32.226Z,10.37
2019-01-11T18:42:02.584Z,13.23
2019-01-11T18:44:33.236Z,9.53
2019-01-11T18:47:03.569Z,13.27
2019-01-11T18:49:34.859Z,13.47
2019-01-11T18:52:05.214Z,10.65
2019-01-11T18:54:35.533Z,10.17
2019-01-11T18:57:05.782Z,11.40
2019-01-11T18:59:36.405Z,10.60
2019-01-11T19:02:06.758Z,11.27
2019-01-11T19:04:37.432Z,10.77
2019-01-11T19:07:07.858Z,9.63
2019-01-11T19:09:38.181Z,10.27
2019-01-11T19:12:08.520Z,10.77
2019-01-11T19:14:38.753Z,9.93
2019-01-11T19:17:09.000Z,11.17
2019-01-11T19:19:40.394Z,10.00
2019-01-11T19:22:10.791Z,10.13
2019-01-11T19:24:41.698Z,9.33
2019-01-11T19:27:11.931Z,11.60
2019-01-11T19:29:42.676Z,11.30
2019-01-11T19:32:13.059Z,11.27
2019-01-11T19:34:43.738Z,15.20
2019-01-11T19:37:14.255Z,13.23
2019-01-11T19:39:44.788Z,13.67
2019-01-11T19:42:15.579Z,12.98
2019-01-11T19:44:45.923Z,12.83
2019-01-11T19:47:16.167Z,14.00
2019-01-11T19:49:46.514Z,13.23
2019-01-11T19:52:16.837Z,16.33
2019-01-11T19:54:47.286Z,14.40
2019-01-11T19:57:17.766Z,22.03
2019-01-11T19:59:48.064Z,32.30
2019-01-11T20:02:18.339Z,31.93
2019-01-11T20:04:48.579Z,15.67
2019-01-11T20:07:18.858Z,12.20
2019-01-11T20:09:49.202Z,15.23
2019-01-11T20:12:19.457Z,15.60
2019-01-11T20:14:49.718Z,15.00
2019-01-11T20:17:20.274Z,14.93
2019-01-11T20:19:50.553Z,14.03
2019-01-11T20:22:20.857Z,11.93
2019-01-11T20:24:51.875Z,10.43
2019-01-11T20:27:22.226Z,10.50
2019-01-11T20:29:52.479Z,10.40
2019-01-11T20:32:22.796Z,11.43
2019-01-11T20:34:54.483Z,11.73
2019-01-11T20:37:33.561Z,10.23
2019-01-11T20:40:04.707Z,11.17
2019-01-11T20:42:35.987Z,11.67
2019-01-11T20:45:07.705Z,12.40
2019-01-11T20:47:37.997Z,13.30
2019-01-11T20:50:10.799Z,13.25
2019-01-11T20:52:41.315Z,13.03
2019-01-11T20:55:12.764Z,12.90
2019-01-11T20:57:43.565Z,12.33
2019-01-11T21:00:17.725Z,12.67
2019-01-11T21:02:48.021Z,13.83
2019-01-11T21:05:18.853Z,14.27
2019-01-11T21:07:50.478Z,13.90
2019-01-11T21:10:21.258Z,12.67
2019-01-11T21:12:51.599Z,13.73
2019-01-11T21:15:22.210Z,13.20
2019-01-11T21:17:52.957Z,11.90
2019-01-11T21:20:23.677Z,13.00
2019-01-11T21:22:54.242Z,11.60
2019-01-11T21:25:25.943Z,11.83
2019-01-11T21:27:56.598Z,12.03
2019-01-11T21:30:31.679Z,11.70
2019-01-11T21:33:02.179Z,10.43
2019-01-11T21:35:32.625Z,11.80
2019-01-11T21:38:02.978Z,11.33
2019-01-11T21:40:33.273Z,11.00
2019-01-11T21:43:03.739Z,10.87
2019-01-11T21:45:33.996Z,10.17
2019-01-11T21:48:05.799Z,9.90
2019-01-11T21:50:36.009Z,10.57
2019-01-11T21:53:06.599Z,11.13
2019-01-11T21:55:36.897Z,11.00
2019-01-11T21:58:07.285Z,12.17
2019-01-11T22:00:43.757Z,11.20
2019-01-11T22:03:19.002Z,11.73
2019-01-11T22:05:49.261Z,11.50
2019-01-11T22:08:19.647Z,12.13
2019-01-11T22:10:49.873Z,11.40
2019-01-11T22:13:20.258Z,11.20
2019-01-11T22:15:50.547Z,10.87
2019-01-11T22:18:20.953Z,10.40
2019-01-11T22:20:51.173Z,10.20
2019-01-11T22:23:23.625Z,9.07
2019-01-11T22:25:53.480Z,9.37
2019-01-11T22:28:23.823Z,10.00
2019-01-11T22:30:54.024Z,9.93
2019-01-11T22:33:24.361Z,9.53
2019-01-11T22:35:54.576Z,8.93
2019-01-11T22:38:24.936Z,9.53
2019-01-11T22:40:55.198Z,9.07
2019-01-11T22:43:26.516Z,9.50
2019-01-11T22:45:56.786Z,9.23
2019-01-11T22:48:27.136Z,8.83
2019-01-11T22:50:57.449Z,8.80
2019-01-11T22:53:28.006Z,8.43
2019-01-11T22:55:58.297Z,11.60
2019-01-11T22:58:28.596Z,10.47
2019-01-11T23:01:22.700Z,8.60
2019-01-11T23:03:55.170Z,9.07
2019-01-11T23:07:01.727Z,9.00
2019-01-11T23:09:40.924Z,8.77
2019-01-11T23:12:31.993Z,9.10
2019-01-11T23:15:05.295Z,9.00
2019-01-11T23:17:43.835Z,9.25
2019-01-11T23:20:15.115Z,9.17
2019-01-11T23:22:45.373Z,9.03
2019-01-11T23:25:15.613Z,9.63
2019-01-11T23:27:45.941Z,9.27
2019-01-11T23:30:17.787Z,9.20
2019-01-11T23:32:49.051Z,8.90
2019-01-11T23:35:19.269Z,8.30
2019-01-11T23:37:49.619Z,8.07
2019-01-11T23:40:19.808Z,7.67
2019-01-11T23:42:50.586Z,8.43
2019-01-11T23:45:23.367Z,8.77
2019-01-11T23:47:53.662Z,7.67
2019-01-11T23:50:23.875Z,8.33
2019-01-11T23:52:54.151Z,7.43
2019-01-11T23:55:24.433Z,9.53
2019-01-11T23:57:55.929Z,9.37
